createdAt,value
2019-03-10T00:01:01.775Z,96269.00
2019-03-10T00:06:04.343Z,96270.00
2019-03-10T00:11:07.196Z,96282.00
2019-03-10T00:16:08.648Z,96286.00
2019-03-10T00:21:09.981Z,96284.00
2019-03-10T00:26:11.281Z,96277.00
2019-03-10T00:31:13.691Z,96272.00
2019-03-10T00:36:16.324Z,96279.00
2019-03-10T00:41:47.822Z,96278.00
2019-03-10T00:47:32.146Z,96267.00
2019-03-10T00:52:41.963Z,96256.00
2019-03-10T00:57:44.403Z,96258.00
2019-03-10T01:02:46.676Z,96247.00
2019-03-10T01:07:49.139Z,96239.00
2019-03-10T01:12:51.603Z,96230.00
2019-03-10T01:17:52.812Z,96209.00
2019-03-10T01:22:54.144Z,96197.00
2019-03-10T01:27:56.503Z,96195.00
2019-03-10T01:33:12.036Z,96166.00
2019-03-10T01:38:15.552Z,96193.00
2019-03-10T01:43:18.057Z,96185.00
2019-03-10T01:48:20.391Z,96181.00
2019-03-10T01:53:25.806Z,96177.00
2019-03-10T01:58:28.991Z,96154.00
2019-03-10T02:03:31.915Z,96137.00
2019-03-10T02:08:35.556Z,96136.00
2019-03-10T02:13:37.887Z,96118.00
2019-03-10T02:18:40.200Z,96108.00
2019-03-10T02:23:44.319Z,96115.00
2019-03-10T02:28:46.939Z,96113.00
2019-03-10T02:33:50.139Z,96103.00
2019-03-10T02:38:53.221Z,96081.00
2019-03-10T02:43:55.563Z,96085.00
2019-03-10T02:48:57.999Z,96068.00
2019-03-10T02:54:00.377Z,96075.00
2019-03-10T02:59:02.700Z,96077.00
2019-03-10T03:04:04.994Z,96066.00
2019-03-10T03:09:07.808Z,96066.00
2019-03-10T03:14:11.660Z,96078.00
2019-03-10T03:19:14.201Z,96074.00
2019-03-10T03:24:16.693Z,96071.00
2019-03-10T03:29:19.095Z,96070.00
2019-03-10T03:34:21.505Z,96044.00
2019-03-10T03:39:31.085Z,96028.00
2019-03-10T03:44:33.591Z,96027.00
2019-03-10T03:49:35.970Z,96015.00
2019-03-10T03:54:38.370Z,96008.00
2019-03-10T03:59:40.724Z,95992.00
2019-03-10T04:04:43.091Z,95980.00
2019-03-10T04:09:47.041Z,95973.00
2019-03-10T04:14:50.571Z,95975.00
2019-03-10T04:19:52.991Z,95976.00
2019-03-10T04:24:55.358Z,95975.00
2019-03-10T04:29:57.632Z,95986.00
2019-03-10T04:34:59.984Z,95965.00
2019-03-10T04:40:02.671Z,95962.00
2019-03-10T04:45:05.213Z,95955.00
2019-03-10T04:50:07.571Z,95954.00
2019-03-10T04:55:32.501Z,95950.00
2019-03-10T05:00:36.654Z,95935.00
2019-03-10T05:05:39.020Z,95913.00
2019-03-10T05:10:41.455Z,95904.00
2019-03-10T05:15:43.691Z,95896.00
2019-03-10T05:20:46.105Z,95887.00
2019-03-10T05:25:48.663Z,95865.00
2019-03-10T05:30:51.118Z,95860.00
2019-03-10T05:35:53.472Z,95837.00
2019-03-10T05:40:57.275Z,95826.00
2019-03-10T05:45:59.677Z,95813.00
2019-03-10T05:51:02.034Z,95798.00
2019-03-10T05:56:04.427Z,95795.00
2019-03-10T06:01:07.259Z,95782.00
2019-03-10T06:06:09.587Z,95778.00
2019-03-10T06:11:12.046Z,95777.00
2019-03-10T06:16:15.059Z,95762.00
2019-03-10T06:21:17.399Z,95758.00
2019-03-10T06:26:19.833Z,95755.00
2019-03-10T06:31:22.173Z,95751.00
2019-03-10T06:36:24.561Z,95737.00
2019-03-10T06:41:27.083Z,95730.00
2019-03-10T06:46:29.447Z,95724.00
2019-03-10T06:51:31.825Z,95716.00
2019-03-10T06:56:34.195Z,95710.00
2019-03-10T07:01:36.444Z,95689.00
2019-03-10T07:06:38.863Z,95687.00
2019-03-10T07:11:41.419Z,95678.00
2019-03-10T07:16:43.739Z,95662.00
2019-03-10T07:21:46.007Z,95651.00
2019-03-10T07:26:48.296Z,95648.00
2019-03-10T07:32:17.964Z,95640.00
2019-03-10T07:37:30.988Z,95631.00
2019-03-10T07:42:51.601Z,95615.00
2019-03-10T07:48:13.492Z,95625.00
2019-03-10T07:53:34.475Z,95630.00
2019-03-10T07:59:09.467Z,95625.00
2019-03-10T08:04:31.551Z,95605.00
2019-03-10T08:09:45.151Z,95594.00
2019-03-10T08:15:23.258Z,95575.00
2019-03-10T08:20:34.329Z,95540.00
2019-03-10T08:26:00.936Z,95524.00
2019-03-10T08:31:22.872Z,95411.00
2019-03-10T08:36:39.484Z,95515.00
2019-03-10T08:41:59.983Z,95506.00
2019-03-10T08:47:18.569Z,95502.00
2019-03-10T08:52:30.264Z,95508.00
2019-03-10T08:58:07.567Z,95516.00
2019-03-10T09:03:19.468Z,95513.00
2019-03-10T09:08:34.376Z,95512.00
2019-03-10T09:13:48.759Z,95487.00
2019-03-10T09:19:19.915Z,95483.00
2019-03-10T09:24:37.605Z,95469.00
2019-03-10T09:29:54.502Z,95478.00
2019-03-10T09:35:28.311Z,95465.00
2019-03-10T09:40:48.357Z,95451.00
2019-03-10T09:46:01.872Z,95434.00
2019-03-10T09:51:17.088Z,95429.00
2019-03-10T09:56:42.499Z,95439.00
2019-03-10T10:01:51.664Z,95423.00
2019-03-10T10:07:12.496Z,95418.00
2019-03-10T10:12:23.732Z,95410.00
2019-03-10T10:17:49.277Z,95408.00
2019-03-10T10:23:14.087Z,95393.00
2019-03-10T10:28:34.538Z,95362.00
2019-03-10T10:33:55.226Z,95368.00
2019-03-10T10:39:15.927Z,95374.00
2019-03-10T10:44:26.291Z,95353.00
2019-03-10T10:49:54.601Z,95356.00
2019-03-10T10:55:17.041Z,95348.00
2019-03-10T11:00:36.550Z,95344.00
2019-03-10T11:05:55.347Z,95346.00
2019-03-10T11:11:16.333Z,95354.00
2019-03-10T11:16:40.601Z,95333.00
2019-03-10T11:22:00.019Z,95336.00
2019-03-10T11:27:31.883Z,95320.00
2019-03-10T11:32:47.066Z,95279.00
2019-03-10T11:38:07.757Z,95293.00
2019-03-10T11:43:33.108Z,95267.00
2019-03-10T11:48:45.679Z,95268.00
2019-03-10T11:54:00.131Z,95267.00
2019-03-10T11:59:09.608Z,95188.00
2019-03-10T12:04:24.042Z,95214.00
2019-03-10T12:09:26.825Z,95197.00
2019-03-10T12:14:29.226Z,95182.00
2019-03-10T12:19:31.672Z,95203.00
2019-03-10T12:24:34.101Z,95188.00
2019-03-10T12:29:41.911Z,95195.00
2019-03-10T12:34:44.239Z,95187.00
2019-03-10T12:39:46.680Z,95181.00
2019-03-10T12:44:49.079Z,95179.00
2019-03-10T12:49:53.139Z,95177.00
2019-03-10T12:54:55.577Z,95163.00
2019-03-10T12:59:59.616Z,95168.00
2019-03-10T13:05:03.530Z,95141.00
2019-03-10T13:10:07.105Z,95118.00
2019-03-10T13:15:09.636Z,95134.00
2019-03-10T13:20:13.203Z,95142.00
2019-03-10T13:25:15.564Z,95125.00
2019-03-10T13:30:18.146Z,95116.00
2019-03-10T13:35:20.531Z,95093.00
2019-03-10T13:40:23.671Z,95040.00
2019-03-10T13:45:26.434Z,95137.00
2019-03-10T13:50:45.557Z,95166.00
2019-03-10T13:55:48.744Z,95131.00
2019-03-10T14:00:51.598Z,95121.00
2019-03-10T14:05:54.620Z,95102.00
2019-03-10T14:10:57.441Z,95078.00
2019-03-10T14:16:01.979Z,95065.00
2019-03-10T14:21:04.889Z,94999.00
2019-03-10T14:26:08.880Z,95090.00
2019-03-10T14:31:11.816Z,95084.00
2019-03-10T14:36:14.308Z,95006.00
2019-03-10T14:41:16.907Z,95103.00
2019-03-10T14:46:20.801Z,95125.00
2019-03-10T14:51:24.321Z,95158.00
2019-03-10T14:56:26.912Z,95229.00
2019-03-10T15:01:29.799Z,95193.00
2019-03-10T15:06:32.436Z,95187.00
2019-03-10T15:11:35.609Z,95183.00
2019-03-10T15:16:38.083Z,95174.00
2019-03-10T15:21:40.903Z,95195.00
2019-03-10T15:26:45.877Z,95218.00
2019-03-10T15:31:48.280Z,95109.00
2019-03-10T15:36:51.219Z,95223.00
2019-03-10T15:41:53.884Z,95210.00
2019-03-10T15:46:56.784Z,95145.00
2019-03-10T15:51:59.526Z,95224.00
2019-03-10T15:57:01.979Z,95196.00
2019-03-10T16:02:04.604Z,95151.00
2019-03-10T16:19:15.027Z,95281.00
2019-03-10T16:24:18.695Z,95266.00
2019-03-10T16:29:21.804Z,95269.00
2019-03-10T16:34:24.272Z,95260.00
2019-03-10T16:39:26.868Z,95271.00
2019-03-10T16:44:29.237Z,95299.00
2019-03-10T16:49:31.883Z,95329.00
2019-03-10T16:54:34.353Z,95330.00
2019-03-10T16:59:36.923Z,95324.00
2019-03-10T17:04:38.131Z,95339.00
2019-03-10T17:09:39.579Z,95354.00
2019-03-10T17:14:41.979Z,95374.00
2019-03-10T17:19:44.484Z,95349.00
2019-03-10T17:24:46.964Z,95392.00
2019-03-10T17:29:49.639Z,95395.00
2019-03-10T17:34:52.132Z,95425.00
2019-03-10T17:39:55.096Z,95417.00
2019-03-10T17:44:58.703Z,95470.00
2019-03-10T17:50:00.961Z,95458.00
2019-03-10T17:55:03.813Z,95471.00
2019-03-10T18:00:07.839Z,95462.00
2019-03-10T18:05:10.924Z,95484.00
2019-03-10T18:10:13.556Z,95514.00
2019-03-10T18:15:16.616Z,95540.00
2019-03-10T18:20:19.723Z,95538.00
2019-03-10T18:25:23.773Z,95572.00
2019-03-10T18:30:27.547Z,95612.00
2019-03-10T18:35:32.371Z,95573.00
2019-03-10T18:40:36.602Z,95603.00
2019-03-10T18:45:39.539Z,95574.00
2019-03-10T18:50:43.004Z,95605.00
2019-03-10T18:55:46.845Z,95609.00
2019-03-10T19:00:53.620Z,95613.00
2019-03-10T19:05:59.813Z,95622.00
2019-03-10T19:11:04.229Z,95603.00
2019-03-10T19:16:07.836Z,95626.00
2019-03-10T19:21:13.424Z,95667.00
2019-03-10T19:26:20.097Z,95615.00
2019-03-10T19:31:23.510Z,95625.00
2019-03-10T19:36:28.566Z,95628.00
2019-03-10T19:41:36.180Z,95641.00
2019-03-10T19:46:40.199Z,95613.00
2019-03-10T19:51:45.588Z,95676.00
2019-03-10T19:56:50.595Z,95653.00
2019-03-10T20:01:57.613Z,95717.00
2019-03-10T20:07:02.414Z,95722.00
2019-03-10T20:12:07.054Z,95760.00
2019-03-10T20:17:14.028Z,95752.00
2019-03-10T20:22:19.084Z,95751.00
2019-03-10T20:27:23.229Z,95757.00
2019-03-10T20:32:28.444Z,95782.00
2019-03-10T20:37:33.339Z,95780.00
2019-03-10T20:42:38.161Z,95816.00
2019-03-10T20:47:41.927Z,95799.00
2019-03-10T20:52:49.442Z,95834.00
2019-03-10T20:57:53.081Z,95821.00
2019-03-10T21:02:57.328Z,95842.00
2019-03-10T21:08:01.292Z,95860.00
2019-03-10T21:13:05.238Z,95869.00
2019-03-10T21:18:09.640Z,95906.00
2019-03-10T21:23:15.202Z,95954.00
2019-03-10T21:28:19.584Z,96066.00
2019-03-10T21:33:22.055Z,96044.00
2019-03-10T21:38:24.530Z,96027.00
2019-03-10T21:43:27.012Z,96043.00
2019-03-10T21:48:29.476Z,96072.00
2019-03-10T21:53:32.057Z,96093.00
2019-03-10T21:58:34.638Z,96083.00
2019-03-10T22:03:37.019Z,96100.00
2019-03-10T22:08:39.801Z,96101.00
2019-03-10T22:13:46.594Z,96114.00
2019-03-10T22:18:46.760Z,96114.00
2019-03-10T22:23:58.912Z,96129.00
2019-03-10T22:28:55.541Z,96091.00
2019-03-10T22:33:59.343Z,96177.00
2019-03-10T22:39:01.752Z,96102.00
2019-03-10T22:44:06.255Z,96161.00
2019-03-10T22:49:08.737Z,96177.00
2019-03-10T22:54:11.857Z,96188.00
2019-03-10T22:59:14.651Z,96208.00
2019-03-10T23:04:17.071Z,96207.00
2019-03-10T23:09:19.544Z,96192.00
2019-03-10T23:14:22.060Z,96228.00
2019-03-10T23:19:25.867Z,96255.00
2019-03-10T23:24:28.931Z,96258.00
2019-03-10T23:29:31.508Z,96242.00
2019-03-10T23:34:35.049Z,96284.00
2019-03-10T23:39:37.934Z,96280.00
2019-03-10T23:44:40.396Z,96288.00
2019-03-10T23:49:43.918Z,96293.00
2019-03-10T23:54:46.457Z,96303.00
2019-03-10T23:59:49.380Z,96311.00
